sensor_id;sensor_type;location;lat;lon;timestamp;pressure;altitude;pressure_sealevel;temperature;humidity
72157;BME280;60035;52.122;5.406;2022-09-28T00:02:23;99795.97;;;7.25;96.14
72157;BME280;60035;52.122;5.406;2022-09-28T00:04:50;99792.63;;;7.23;96.21
72157;BME280;60035;52.122;5.406;2022-09-28T00:07:17;99788.56;;;7.17;95.98
72157;BME280;60035;52.122;5.406;2022-09-28T00:09:43;99796.25;;;7.16;96.06
72157;BME280;60035;52.122;5.406;2022-09-28T00:12:09;99799.72;;;7.13;96.07
72157;BME280;60035;52.122;5.406;2022-09-28T00:14:37;99790.53;;;7.09;96.30
72157;BME280;60035;52.122;5.406;2022-09-28T00:17:05;99790.56;;;7.08;96.17
72157;BME280;60035;52.122;5.406;2022-09-28T00:19:33;99790.72;;;7.03;96.25
72157;BME280;60035;52.122;5.406;2022-09-28T00:21:59;99789.97;;;6.99;96.51
72157;BME280;60035;52.122;5.406;2022-09-28T00:24:26;99794.31;;;6.97;96.24
72157;BME280;60035;52.122;5.406;2022-09-28T00:26:55;99792.56;;;6.98;96.33
72157;BME280;60035;52.122;5.406;2022-09-28T00:29:25;99790.91;;;6.97;96.39
72157;BME280;60035;52.122;5.406;2022-09-28T00:31:54;99802.00;;;6.94;96.29
72157;BME280;60035;52.122;5.406;2022-09-28T00:34:25;99797.03;;;6.91;96.11
72157;BME280;60035;52.122;5.406;2022-09-28T00:36:52;99789.44;;;6.90;96.58
72157;BME280;60035;52.122;5.406;2022-09-28T00:39:18;99794.59;;;6.88;96.35
72157;BME280;60035;52.122;5.406;2022-09-28T00:41:45;99798.00;;;6.87;96.47
72157;BME280;60035;52.122;5.406;2022-09-28T00:50:01;99784.66;;;6.80;96.52
72157;BME280;60035;52.122;5.406;2022-09-28T00:52:34;99786.31;;;6.81;96.70
72157;BME280;60035;52.122;5.406;2022-09-28T00:55:07;99780.38;;;6.81;96.62
72157;BME280;60035;52.122;5.406;2022-09-28T00:57:36;99787.13;;;6.82;96.40
72157;BME280;60035;52.122;5.406;2022-09-28T01:00:04;99778.63;;;6.83;96.51
72157;BME280;60035;52.122;5.406;2022-09-28T01:02:31;99782.94;;;6.81;96.75
72157;BME280;60035;52.122;5.406;2022-09-28T01:04:58;99772.81;;;6.79;96.44
72157;BME280;60035;52.122;5.406;2022-09-28T01:07:25;99777.88;;;6.79;96.62
72157;BME280;60035;52.122;5.406;2022-09-28T01:09:52;99777.06;;;6.79;96.48
72157;BME280;60035;52.122;5.406;2022-09-28T01:12:19;99773.66;;;6.78;96.32
72157;BME280;60035;52.122;5.406;2022-09-28T01:14:46;99769.50;;;6.76;96.48
72157;BME280;60035;52.122;5.406;2022-09-28T01:17:17;99766.97;;;6.76;96.37
72157;BME280;60035;52.122;5.406;2022-09-28T01:28:09;99770.25;;;6.79;96.81
72157;BME280;60035;52.122;5.406;2022-09-28T01:30:43;99768.50;;;6.81;97.08
72157;BME280;60035;52.122;5.406;2022-09-28T01:33:19;99767.59;;;6.82;97.10
72157;BME280;60035;52.122;5.406;2022-09-28T01:38:56;99766.84;;;6.80;96.93
72157;BME280;60035;52.122;5.406;2022-09-28T01:41:28;99772.69;;;6.82;96.89
72157;BME280;60035;52.122;5.406;2022-09-28T01:43:56;99770.06;;;6.86;97.42
72157;BME280;60035;52.122;5.406;2022-09-28T01:46:34;99765.75;;;6.88;97.31
72157;BME280;60035;52.122;5.406;2022-09-28T01:49:24;99765.75;;;6.88;97.00
72157;BME280;60035;52.122;5.406;2022-09-28T01:52:14;99765.13;;;6.81;96.98
72157;BME280;60035;52.122;5.406;2022-09-28T01:54:46;99763.59;;;6.75;96.91
72157;BME280;60035;52.122;5.406;2022-09-28T01:57:25;99767.91;;;6.73;96.76
72157;BME280;60035;52.122;5.406;2022-09-28T01:59:58;99767.91;;;6.73;96.66
72157;BME280;60035;52.122;5.406;2022-09-28T02:02:31;99766.31;;;6.69;96.58
72157;BME280;60035;52.122;5.406;2022-09-28T02:05:07;99761.41;;;6.64;96.52
72157;BME280;60035;52.122;5.406;2022-09-28T02:07:40;99763.09;;;6.64;96.81
72157;BME280;60035;52.122;5.406;2022-09-28T02:10:18;99764.00;;;6.61;96.86
72157;BME280;60035;52.122;5.406;2022-09-28T02:12:57;99758.97;;;6.60;96.89
72157;BME280;60035;52.122;5.406;2022-09-28T02:15:52;99760.75;;;6.58;96.52
72157;BME280;60035;52.122;5.406;2022-09-28T02:18:19;99756.59;;;6.55;96.79
72157;BME280;60035;52.122;5.406;2022-09-28T02:20:51;99758.25;;;6.56;96.78
72157;BME280;60035;52.122;5.406;2022-09-28T02:23:22;99759.97;;;6.56;97.04
72157;BME280;60035;52.122;5.406;2022-09-28T02:25:57;99760.00;;;6.54;96.64
72157;BME280;60035;52.122;5.406;2022-09-28T02:28:26;99760.81;;;6.55;96.96
72157;BME280;60035;52.122;5.406;2022-09-28T02:30:52;99758.28;;;6.55;96.90
72157;BME280;60035;52.122;5.406;2022-09-28T02:33:28;99763.38;;;6.55;96.97
72157;BME280;60035;52.122;5.406;2022-09-28T02:35:58;99759.13;;;6.55;96.68
72157;BME280;60035;52.122;5.406;2022-09-28T02:38:25;99763.38;;;6.55;97.16
72157;BME280;60035;52.122;5.406;2022-09-28T02:41:02;99760.81;;;6.56;97.07
72157;BME280;60035;52.122;5.406;2022-09-28T02:49:17;99777.00;;;6.54;97.53
72157;BME280;60035;52.122;5.406;2022-09-28T02:54:54;99774.53;;;6.50;97.30
72157;BME280;60035;52.122;5.406;2022-09-28T03:00:14;99774.53;;;6.50;97.49
72157;BME280;60035;52.122;5.406;2022-09-28T03:03:01;99777.91;;;6.51;97.76
72157;BME280;60035;52.122;5.406;2022-09-28T03:05:36;99779.66;;;6.49;98.04
72157;BME280;60035;52.122;5.406;2022-09-28T03:08:51;99779.66;;;6.49;97.97
72157;BME280;60035;52.122;5.406;2022-09-28T03:11:24;99776.28;;;6.48;97.79
72157;BME280;60035;52.122;5.406;2022-09-28T03:13:55;99773.81;;;6.47;97.54
72157;BME280;60035;52.122;5.406;2022-09-28T03:16:21;99780.56;;;6.46;97.54
72157;BME280;60035;52.122;5.406;2022-09-28T03:18:48;99780.56;;;6.46;97.43
72157;BME280;60035;52.122;5.406;2022-09-28T03:21:15;99777.25;;;6.44;97.52
72157;BME280;60035;52.122;5.406;2022-09-28T03:23:42;99777.28;;;6.43;97.39
72157;BME280;60035;52.122;5.406;2022-09-28T03:26:12;99784.97;;;6.41;97.95
72157;BME280;60035;52.122;5.406;2022-09-28T03:28:39;99790.09;;;6.40;97.47
72157;BME280;60035;52.122;5.406;2022-09-28T03:31:06;99790.16;;;6.38;97.40
72157;BME280;60035;52.122;5.406;2022-09-28T03:33:32;99789.41;;;6.34;97.78
72157;BME280;60035;52.122;5.406;2022-09-28T03:35:59;99784.31;;;6.34;97.62
72157;BME280;60035;52.122;5.406;2022-09-28T03:38:26;99782.63;;;6.35;97.87
72157;BME280;60035;52.122;5.406;2022-09-28T03:40:54;99783.44;;;6.36;97.63
72157;BME280;60035;52.122;5.406;2022-09-28T03:43:22;99794.44;;;6.36;97.67
72157;BME280;60035;52.122;5.406;2022-09-28T03:45:59;99784.25;;;6.36;97.33
72157;BME280;60035;52.122;5.406;2022-09-28T03:48:27;99779.22;;;6.34;97.29
72157;BME280;60035;52.122;5.406;2022-09-28T03:51:00;99780.09;;;6.33;97.45
72157;BME280;60035;52.122;5.406;2022-09-28T03:53:27;99775.00;;;6.33;97.60
72157;BME280;60035;52.122;5.406;2022-09-28T03:55:55;99773.38;;;6.32;97.28
72157;BME280;60035;52.122;5.406;2022-09-28T03:58:22;99775.13;;;6.30;97.32
72157;BME280;60035;52.122;5.406;2022-09-28T04:00:48;99769.22;;;6.28;97.42
72157;BME280;60035;52.122;5.406;2022-09-28T04:03:15;99772.66;;;6.27;97.39
72157;BME280;60035;52.122;5.406;2022-09-28T04:05:49;99771.97;;;6.22;97.26
72157;BME280;60035;52.122;5.406;2022-09-28T04:08:17;99766.94;;;6.21;97.43
72157;BME280;60035;52.122;5.406;2022-09-28T04:10:43;99773.75;;;6.19;97.24
72157;BME280;60035;52.122;5.406;2022-09-28T04:13:10;99768.72;;;6.17;97.02
72157;BME280;60035;52.122;5.406;2022-09-28T04:15:37;99771.31;;;6.15;97.31
72157;BME280;60035;52.122;5.406;2022-09-28T04:18:12;99772.28;;;6.11;96.88
72157;BME280;60035;52.122;5.406;2022-09-28T04:20:39;99774.13;;;6.06;96.92
72157;BME280;60035;52.122;5.406;2022-09-28T04:23:06;99781.78;;;6.05;96.65
72157;BME280;60035;52.122;5.406;2022-09-28T04:25:33;99788.66;;;6.01;96.47
72157;BME280;60035;52.122;5.406;2022-09-28T04:27:59;99794.66;;;5.98;96.89
72157;BME280;60035;52.122;5.406;2022-09-28T04:30:45;99788.88;;;5.92;96.58
72157;BME280;60035;52.122;5.406;2022-09-28T04:33:12;99789.00;;;5.87;96.75
72157;BME280;60035;52.122;5.406;2022-09-28T04:35:39;99784.06;;;5.82;96.46
72157;BME280;60035;52.122;5.406;2022-09-28T04:38:05;99788.31;;;5.80;96.41
72157;BME280;60035;52.122;5.406;2022-09-28T04:40:32;99791.72;;;5.81;96.56
72157;BME280;60035;52.122;5.406;2022-09-28T04:42:58;99790.91;;;5.79;96.27
72157;BME280;60035;52.122;5.406;2022-09-28T04:45:25;99785.88;;;5.77;96.62
72157;BME280;60035;52.122;5.406;2022-09-28T04:47:52;99780.03;;;5.74;96.64
72157;BME280;60035;52.122;5.406;2022-09-28T04:50:19;99784.34;;;5.70;96.58
72157;BME280;60035;52.122;5.406;2022-09-28T04:52:46;99785.25;;;5.69;96.88
72157;BME280;60035;52.122;5.406;2022-09-28T04:55:12;99788.66;;;5.68;96.79
72157;BME280;60035;52.122;5.406;2022-09-28T04:57:40;99790.38;;;5.67;96.80
72157;BME280;60035;52.122;5.406;2022-09-28T05:00:06;99792.03;;;5.68;96.94
72157;BME280;60035;52.122;5.406;2022-09-28T05:02:34;99792.94;;;5.66;97.16
72157;BME280;60035;52.122;5.406;2022-09-28T05:05:00;99792.13;;;5.65;96.78
72157;BME280;60035;52.122;5.406;2022-09-28T05:07:28;99783.78;;;5.60;97.07
72157;BME280;60035;52.122;5.406;2022-09-28T05:09:54;99792.34;;;5.56;97.08
72157;BME280;60035;52.122;5.406;2022-09-28T05:12:21;99799.94;;;5.58;97.07
72157;BME280;60035;52.122;5.406;2022-09-28T05:14:47;99794.75;;;5.61;97.42
72157;BME280;60035;52.122;5.406;2022-09-28T05:17:14;99805.81;;;5.60;97.23
72157;BME280;60035;52.122;5.406;2022-09-28T05:19:40;99793.97;;;5.59;97.33
72157;BME280;60035;52.122;5.406;2022-09-28T05:22:06;99801.50;;;5.62;97.29
72157;BME280;60035;52.122;5.406;2022-09-28T05:24:36;99798.97;;;5.62;97.15
72157;BME280;60035;52.122;5.406;2022-09-28T05:27:03;99802.34;;;5.62;97.56
72157;BME280;60035;52.122;5.406;2022-09-28T05:29:30;99805.81;;;5.60;97.60
72157;BME280;60035;52.122;5.406;2022-09-28T05:31:58;99804.09;;;5.60;97.53
72157;BME280;60035;52.122;5.406;2022-09-28T05:34:26;99805.75;;;5.61;97.45
72157;BME280;60035;52.122;5.406;2022-09-28T05:36:53;99801.47;;;5.63;97.28
72157;BME280;60035;52.122;5.406;2022-09-28T05:39:19;99797.19;;;5.65;97.82
72157;BME280;60035;52.122;5.406;2022-09-28T05:41:46;99803.91;;;5.68;97.78
72157;BME280;60035;52.122;5.406;2022-09-28T05:44:13;99806.34;;;5.71;97.75
72157;BME280;60035;52.122;5.406;2022-09-28T05:46:40;99802.94;;;5.72;97.92
72157;BME280;60035;52.122;5.406;2022-09-28T05:49:06;99803.75;;;5.74;97.71
72157;BME280;60035;52.122;5.406;2022-09-28T05:51:33;99806.25;;;5.76;98.11
72157;BME280;60035;52.122;5.406;2022-09-28T05:53:59;99812.94;;;5.78;98.14
72157;BME280;60035;52.122;5.406;2022-09-28T05:56:38;99812.03;;;5.81;98.00
72157;BME280;60035;52.122;5.406;2022-09-28T05:59:05;99812.75;;;5.84;98.15
72157;BME280;60035;52.122;5.406;2022-09-28T06:01:31;99812.72;;;5.88;98.26
72157;BME280;60035;52.122;5.406;2022-09-28T06:04:07;99812.63;;;5.91;98.17
72157;BME280;60035;52.122;5.406;2022-09-28T06:06:34;99817.59;;;5.94;98.30
72157;BME280;60035;52.122;5.406;2022-09-28T06:09:02;99816.66;;;5.99;98.46
72157;BME280;60035;52.122;5.406;2022-09-28T06:11:31;99815.66;;;6.05;98.92
72157;BME280;60035;52.122;5.406;2022-09-28T06:13:58;99814.63;;;6.11;98.74
72157;BME280;60035;52.122;5.406;2022-09-28T06:16:25;99814.56;;;6.14;98.68
72157;BME280;60035;52.122;5.406;2022-09-28T06:18:52;99811.00;;;6.20;99.08
72157;BME280;60035;52.122;5.406;2022-09-28T06:21:18;99815.13;;;6.24;98.92
72157;BME280;60035;52.122;5.406;2022-09-28T06:23:47;99810.75;;;6.29;99.22
72157;BME280;60035;52.122;5.406;2022-09-28T06:26:15;99813.13;;;6.35;99.15
72157;BME280;60035;52.122;5.406;2022-09-28T06:28:43;99811.19;;;6.43;99.05
72157;BME280;60035;52.122;5.406;2022-09-28T06:31:09;99822.06;;;6.48;99.26
72157;BME280;60035;52.122;5.406;2022-09-28T06:33:36;99826.09;;;6.56;99.09
72157;BME280;60035;52.122;5.406;2022-09-28T06:36:03;99820.81;;;6.62;99.03
72157;BME280;60035;52.122;5.406;2022-09-28T06:38:30;99824.78;;;6.71;99.23
72157;BME280;60035;52.122;5.406;2022-09-28T06:40:57;99818.69;;;6.76;99.36
72157;BME280;60035;52.122;5.406;2022-09-28T06:43:24;99822.75;;;6.82;99.21
72157;BME280;60035;52.122;5.406;2022-09-28T06:45:52;99830.13;;;6.91;99.56
72157;BME280;60035;52.122;5.406;2022-09-28T06:48:19;99829.88;;;6.99;99.17
72157;BME280;60035;52.122;5.406;2022-09-28T06:50:45;99827.91;;;7.07;99.46
72157;BME280;60035;52.122;5.406;2022-09-28T06:53:13;99829.41;;;7.14;99.72
72157;BME280;60035;52.122;5.406;2022-09-28T06:55:41;99835.09;;;7.23;99.39
72157;BME280;60035;52.122;5.406;2022-09-28T06:58:10;99836.47;;;7.33;99.58
72157;BME280;60035;52.122;5.406;2022-09-28T07:00:38;99832.81;;;7.40;99.84
72157;BME280;60035;52.122;5.406;2022-09-28T07:03:06;99828.28;;;7.48;99.57
72157;BME280;60035;52.122;5.406;2022-09-28T07:05:34;99830.53;;;7.58;99.53
72157;BME280;60035;52.122;5.406;2022-09-28T07:08:04;99835.38;;;7.65;99.79
72157;BME280;60035;52.122;5.406;2022-09-28T07:10:31;99836.78;;;7.74;99.37
72157;BME280;60035;52.122;5.406;2022-09-28T07:13:02;99844.13;;;7.83;99.68
72157;BME280;60035;52.122;5.406;2022-09-28T07:15:31;99839.53;;;7.93;99.48
72157;BME280;60035;52.122;5.406;2022-09-28T07:18:02;99847.72;;;8.03;99.67
72157;BME280;60035;52.122;5.406;2022-09-28T07:20:30;99856.72;;;8.12;99.52
72157;BME280;60035;52.122;5.406;2022-09-28T07:23:06;99861.44;;;8.23;99.32
72157;BME280;60035;52.122;5.406;2022-09-28T07:25:44;99855.19;;;8.31;99.02
72157;BME280;60035;52.122;5.406;2022-09-28T07:28:13;99866.72;;;8.42;99.37
72157;BME280;60035;52.122;5.406;2022-09-28T07:30:41;99858.78;;;8.51;99.31
72157;BME280;60035;52.122;5.406;2022-09-28T07:33:11;99870.34;;;8.60;98.94
72157;BME280;60035;52.122;5.406;2022-09-28T07:35:38;99858.19;;;8.66;99.27
72157;BME280;60035;52.122;5.406;2022-09-28T07:38:07;99866.34;;;8.76;98.71
72157;BME280;60035;52.122;5.406;2022-09-28T07:40:35;99872.84;;;8.85;98.62
72157;BME280;60035;52.122;5.406;2022-09-28T07:43:21;99876.66;;;8.95;98.55
72157;BME280;60035;52.122;5.406;2022-09-28T07:45:49;99880.59;;;9.04;98.61
72157;BME280;60035;52.122;5.406;2022-09-28T07:48:17;99874.34;;;9.11;98.17
72157;BME280;60035;52.122;5.406;2022-09-28T07:50:54;99876.53;;;9.21;98.14
72157;BME280;60035;52.122;5.406;2022-09-28T07:53:23;99879.50;;;9.32;97.99
72157;BME280;60035;52.122;5.406;2022-09-28T07:55:55;99880.91;;;9.39;97.65
72157;BME280;60035;52.122;5.406;2022-09-28T07:58:22;99881.47;;;9.47;97.26
72157;BME280;60035;52.122;5.406;2022-09-28T08:00:49;99878.53;;;9.57;97.18
72157;BME280;60035;52.122;5.406;2022-09-28T08:03:17;99885.75;;;9.67;97.19
72157;BME280;60035;52.122;5.406;2022-09-28T08:05:44;99884.59;;;9.75;96.61
72157;BME280;60035;52.122;5.406;2022-09-28T08:08:13;99880.84;;;9.83;96.54
72157;BME280;60035;52.122;5.406;2022-09-28T08:10:43;99891.50;;;9.93;96.24
72157;BME280;60035;52.122;5.406;2022-09-28T08:13:13;99892.03;;;10.02;95.94
72157;BME280;60035;52.122;5.406;2022-09-28T08:15:40;99894.19;;;10.11;95.88
72157;BME280;60035;52.122;5.406;2022-09-28T08:18:08;99897.25;;;10.19;95.35
72157;BME280;60035;52.122;5.406;2022-09-28T08:20:35;99894.53;;;10.22;94.92
72157;BME280;60035;52.122;5.406;2022-09-28T08:23:20;99895.09;;;10.29;94.58
72157;BME280;60035;52.122;5.406;2022-09-28T08:25:50;99895.44;;;10.42;94.46
72157;BME280;60035;52.122;5.406;2022-09-28T08:28:20;99899.25;;;10.52;94.35
72157;BME280;60035;52.122;5.406;2022-09-28T08:30:48;99903.72;;;10.66;94.30
72157;BME280;60035;52.122;5.406;2022-09-28T08:33:16;99910.25;;;10.73;94.17
72157;BME280;60035;52.122;5.406;2022-09-28T08:35:44;99907.28;;;10.82;93.83
72157;BME280;60035;52.122;5.406;2022-09-28T08:38:12;99905.97;;;10.93;93.64
72157;BME280;60035;52.122;5.406;2022-09-28T08:46:23;99910.69;;;11.20;91.86
72157;BME280;60035;52.122;5.406;2022-09-28T08:48:57;99916.13;;;11.31;91.53
72157;BME280;60035;52.122;5.406;2022-09-28T08:51:57;99920.16;;;11.37;90.86
72157;BME280;60035;52.122;5.406;2022-09-28T08:54:45;99924.84;;;11.46;90.75
72157;BME280;60035;52.122;5.406;2022-09-28T08:57:24;99921.81;;;11.55;89.62
72157;BME280;60035;52.122;5.406;2022-09-28T08:59:57;99918.03;;;11.62;89.22
72157;BME280;60035;52.122;5.406;2022-09-28T09:02:30;99920.06;;;11.73;88.94
72157;BME280;60035;52.122;5.406;2022-09-28T09:05:04;99924.75;;;11.82;88.50
72157;BME280;60035;52.122;5.406;2022-09-28T09:18:53;99929.28;;;12.46;87.05
72157;BME280;60035;52.122;5.406;2022-09-28T09:21:36;99934.63;;;12.59;87.52
72157;BME280;60035;52.122;5.406;2022-09-28T09:27:28;99946.78;;;12.22;86.36
72157;BME280;60035;52.122;5.406;2022-09-28T09:30:09;99940.44;;;12.29;85.40
72157;BME280;60035;52.122;5.406;2022-09-28T09:35:36;99946.16;;;12.68;83.17
72157;BME280;60035;52.122;5.406;2022-09-28T09:38:24;99936.97;;;12.95;82.37
72157;BME280;60035;52.122;5.406;2022-09-28T09:43:48;99944.59;;;12.81;82.60
72157;BME280;60035;52.122;5.406;2022-09-28T09:47:07;99943.91;;;13.09;83.34
72157;BME280;60035;52.122;5.406;2022-09-28T09:49:33;99946.75;;;13.37;83.02
72157;BME280;60035;52.122;5.406;2022-09-28T09:52:21;99942.66;;;13.32;81.54
72157;BME280;60035;52.122;5.406;2022-09-28T09:57:48;99942.19;;;13.42;79.96
72157;BME280;60035;52.122;5.406;2022-09-28T10:00:17;99946.97;;;13.16;80.58
72157;BME280;60035;52.122;5.406;2022-09-28T10:02:46;99938.53;;;13.30;79.67
72157;BME280;60035;52.122;5.406;2022-09-28T10:05:21;99938.72;;;13.57;77.97
72157;BME280;60035;52.122;5.406;2022-09-28T10:10:36;99938.66;;;13.89;78.94
72157;BME280;60035;52.122;5.406;2022-09-28T10:13:03;99937.25;;;13.83;77.63
72157;BME280;60035;52.122;5.406;2022-09-28T10:15:31;99943.09;;;13.71;77.41
72157;BME280;60035;52.122;5.406;2022-09-28T10:18:02;99940.88;;;13.65;77.73
72157;BME280;60035;52.122;5.406;2022-09-28T10:20:33;99941.97;;;13.61;77.91
72157;BME280;60035;52.122;5.406;2022-09-28T10:23:04;99952.75;;;13.68;77.29
72157;BME280;60035;52.122;5.406;2022-09-28T10:25:35;99937.63;;;13.77;76.17
72157;BME280;60035;52.122;5.406;2022-09-28T10:28:04;99946.09;;;13.94;74.98
72157;BME280;60035;52.122;5.406;2022-09-28T10:30:37;99945.38;;;14.21;74.84
72157;BME280;60035;52.122;5.406;2022-09-28T10:33:30;99940.16;;;14.51;75.19
72157;BME280;60035;52.122;5.406;2022-09-28T10:36:03;99939.25;;;14.81;73.49
72157;BME280;60035;52.122;5.406;2022-09-28T10:38:32;99945.47;;;14.91;70.61
72157;BME280;60035;52.122;5.406;2022-09-28T10:41:00;99941.69;;;14.97;71.11
72157;BME280;60035;52.122;5.406;2022-09-28T10:46:22;99949.28;;;14.57;70.73
72157;BME280;60035;52.122;5.406;2022-09-28T10:49:04;99947.25;;;14.76;69.55
72157;BME280;60035;52.122;5.406;2022-09-28T10:51:38;99958.78;;;15.12;69.60
72157;BME280;60035;52.122;5.406;2022-09-28T10:54:13;99938.44;;;15.35;67.47
72157;BME280;60035;52.122;5.406;2022-09-28T10:56:40;99940.53;;;15.43;67.85
72157;BME280;60035;52.122;5.406;2022-09-28T10:59:34;99939.13;;;15.64;66.84
72157;BME280;60035;52.122;5.406;2022-09-28T11:02:18;99935.47;;;15.41;65.60
72157;BME280;60035;52.122;5.406;2022-09-28T11:04:53;99944.81;;;15.02;68.52
72157;BME280;60035;52.122;5.406;2022-09-28T11:07:25;99943.75;;;14.77;68.43
72157;BME280;60035;52.122;5.406;2022-09-28T11:09:54;99938.22;;;14.83;71.32
72157;BME280;60035;52.122;5.406;2022-09-28T11:12:23;99948.50;;;15.25;69.72
72157;BME280;60035;52.122;5.406;2022-09-28T11:14:59;99940.97;;;15.49;66.67
72157;BME280;60035;52.122;5.406;2022-09-28T11:17:34;99934.09;;;15.36;65.09
72157;BME280;60035;52.122;5.406;2022-09-28T11:20:26;99944.78;;;15.16;64.63
72157;BME280;60035;52.122;5.406;2022-09-28T11:22:59;99942.81;;;14.93;66.97
72157;BME280;60035;52.122;5.406;2022-09-28T11:25:28;99936.75;;;14.79;68.02
72157;BME280;60035;52.122;5.406;2022-09-28T11:27:58;99944.38;;;14.81;68.46
72157;BME280;60035;52.122;5.406;2022-09-28T11:30:33;99944.28;;;14.82;68.81
72157;BME280;60035;52.122;5.406;2022-09-28T11:33:23;99942.78;;;15.07;67.99
72157;BME280;60035;52.122;5.406;2022-09-28T11:50:17;99924.66;;;15.62;62.61
72157;BME280;60035;52.122;5.406;2022-09-28T11:55:37;99944.50;;;15.34;65.35
72157;BME280;60035;52.122;5.406;2022-09-28T11:58:20;99935.53;;;15.27;64.38
72157;BME280;60035;52.122;5.406;2022-09-28T12:00:59;99944.47;;;15.21;65.94
72157;BME280;60035;52.122;5.406;2022-09-28T12:03:34;99943.00;;;15.17;66.16
72157;BME280;60035;52.122;5.406;2022-09-28T12:06:07;99949.50;;;15.10;65.76
72157;BME280;60035;52.122;5.406;2022-09-28T12:08:44;99951.44;;;15.06;65.58
72157;BME280;60035;52.122;5.406;2022-09-28T12:11:35;99942.09;;;15.18;65.69
72157;BME280;60035;52.122;5.406;2022-09-28T12:14:06;99943.28;;;15.40;66.61
72157;BME280;60035;52.122;5.406;2022-09-28T12:16:48;99942.63;;;15.63;66.75
72157;BME280;60035;52.122;5.406;2022-09-28T12:19:36;99941.47;;;16.46;65.21
72157;BME280;60035;52.122;5.406;2022-09-28T12:22:19;99944.84;;;16.47;63.55
72157;BME280;60035;52.122;5.406;2022-09-28T12:24:50;99946.00;;;16.43;63.79
72157;BME280;60035;52.122;5.406;2022-09-28T12:35:14;99964.94;;;15.37;65.10
72157;BME280;60035;52.122;5.406;2022-09-28T12:40:55;99971.34;;;13.87;72.35
72157;BME280;60035;52.122;5.406;2022-09-28T12:46:54;99987.56;;;12.61;77.14
72157;BME280;60035;52.122;5.406;2022-09-28T12:55:43;99977.00;;;11.99;79.78
72157;BME280;60035;52.122;5.406;2022-09-28T12:58:33;99977.19;;;11.94;80.48
72157;BME280;60035;52.122;5.406;2022-09-28T13:01:13;99979.47;;;11.83;81.29
72157;BME280;60035;52.122;5.406;2022-09-28T13:07:01;99968.97;;;11.70;81.91
72157;BME280;60035;52.122;5.406;2022-09-28T13:09:35;99967.81;;;11.76;82.99
72157;BME280;60035;52.122;5.406;2022-09-28T13:17:44;99979.00;;;11.75;85.66
72157;BME280;60035;52.122;5.406;2022-09-28T13:20:36;99971.00;;;11.81;86.63
72157;BME280;60035;52.122;5.406;2022-09-28T13:23:26;99978.13;;;11.93;86.90
72157;BME280;60035;52.122;5.406;2022-09-28T13:26:25;99982.06;;;12.00;86.66
72157;BME280;60035;52.122;5.406;2022-09-28T13:28:59;99979.81;;;12.12;86.84
72157;BME280;60035;52.122;5.406;2022-09-28T13:31:29;99984.91;;;12.29;87.07
72157;BME280;60035;52.122;5.406;2022-09-28T13:34:02;99983.38;;;12.43;86.98
72157;BME280;60035;52.122;5.406;2022-09-28T13:38:57;99986.31;;;12.69;86.43
72157;BME280;60035;52.122;5.406;2022-09-28T13:41:29;99982.88;;;12.86;86.38
72157;BME280;60035;52.122;5.406;2022-09-28T13:44:16;99981.88;;;13.04;85.52
72157;BME280;60035;52.122;5.406;2022-09-28T13:47:20;99978.88;;;13.60;86.08
72157;BME280;60035;52.122;5.406;2022-09-28T13:52:51;99971.81;;;14.53;
72157;BME280;60035;52.122;5.406;2022-09-28T13:58:35;99969.28;;;15.37;81.77
72157;BME280;60035;52.122;5.406;2022-09-28T14:01:12;99960.47;;;15.94;78.95
72157;BME280;60035;52.122;5.406;2022-09-28T14:04:08;99959.34;;;16.24;76.93
72157;BME280;60035;52.122;5.406;2022-09-28T14:06:36;99964.91;;;16.05;75.31
72157;BME280;60035;52.122;5.406;2022-09-28T14:11:42;99976.78;;;15.54;77.05
72157;BME280;60035;52.122;5.406;2022-09-28T14:16:40;99980.31;;;15.11;74.75
72157;BME280;60035;52.122;5.406;2022-09-28T14:19:20;99978.47;;;14.72;74.27
72157;BME280;60035;52.122;5.406;2022-09-28T14:22:06;99972.38;;;14.44;75.12
72157;BME280;60035;52.122;5.406;2022-09-28T14:25:02;99982.00;;;14.26;74.58
72157;BME280;60035;52.122;5.406;2022-09-28T14:30:22;99982.13;;;13.94;76.84
72157;BME280;60035;52.122;5.406;2022-09-28T14:32:54;99989.47;;;13.86;77.08
72157;BME280;60035;52.122;5.406;2022-09-28T14:35:42;99991.03;;;13.58;78.58
72157;BME280;60035;52.122;5.406;2022-09-28T14:38:19;100000.81;;;13.35;78.54
72157;BME280;60035;52.122;5.406;2022-09-28T14:57:04;100009.59;;;12.32;81.44
72157;BME280;60035;52.122;5.406;2022-09-28T14:59:42;100004.16;;;12.21;81.05
72157;BME280;60035;52.122;5.406;2022-09-28T15:04:40;100004.66;;;11.92;82.52
72157;BME280;60035;52.122;5.406;2022-09-28T15:07:23;100005.78;;;11.87;82.47
72157;BME280;60035;52.122;5.406;2022-09-28T15:09:52;100014.69;;;11.79;83.15
72157;BME280;60035;52.122;5.406;2022-09-28T15:12:23;100012.28;;;11.76;84.04
72157;BME280;60035;52.122;5.406;2022-09-28T15:14:58;100018.31;;;11.75;84.93
72157;BME280;60035;52.122;5.406;2022-09-28T15:17:30;100017.41;;;11.76;84.75
72157;BME280;60035;52.122;5.406;2022-09-28T15:20:34;100020.06;;;11.75;84.71
72157;BME280;60035;52.122;5.406;2022-09-28T15:23:02;100022.63;;;11.75;84.93
72157;BME280;60035;52.122;5.406;2022-09-28T15:25:31;100029.47;;;11.74;85.21
72157;BME280;60035;52.122;5.406;2022-09-28T15:28:12;100027.19;;;11.68;85.53
72157;BME280;60035;52.122;5.406;2022-09-28T15:30:43;100025.38;;;11.70;85.96
72157;BME280;60035;52.122;5.406;2022-09-28T15:36:13;100019.91;;;11.78;85.35
72157;BME280;60035;52.122;5.406;2022-09-28T15:38:42;100022.31;;;11.81;86.91
72157;BME280;60035;52.122;5.406;2022-09-28T15:41:10;100030.22;;;11.76;86.61
72157;BME280;60035;52.122;5.406;2022-09-28T15:43:37;100032.91;;;11.73;85.97
72157;BME280;60035;52.122;5.406;2022-09-28T15:46:16;100039.72;;;11.74;85.84
72157;BME280;60035;52.122;5.406;2022-09-28T15:48:56;100032.25;;;11.70;85.29
72157;BME280;60035;52.122;5.406;2022-09-28T15:51:25;100033.97;;;11.69;85.52
72157;BME280;60035;52.122;5.406;2022-09-28T15:56:28;100027.34;;;11.65;85.06
72157;BME280;60035;52.122;5.406;2022-09-28T16:01:43;100036.63;;;11.67;84.85
72157;BME280;60035;52.122;5.406;2022-09-28T16:07:44;100038.72;;;11.96;84.64
72157;BME280;60035;52.122;5.406;2022-09-28T16:10:29;100036.84;;;12.17;83.58